Puerto Maldonado, Peru

6:09 PM PET on October 22, 2014 (GMT -0500)
Padre Aldamiz | Change Station
CLOSE
Current Station
Airport
Location: Puerto Maldonado,
Elevation: 659 ft
Nearby Weather Stations

Elev 659 ft 12.61 °S, 69.23 °W | Updated 9 minutes ago

Clear
Clear
88 °F
Feels Like 102 °F
N
0
Wind Variable Wind from North

Today
High -- | Low -- °F
--% Chance of Precip.
Yesterday
High -- | Low -- °F
Precip. -- in
5:07 AM 5:34 PM
Waning Crescent, 1% visible
Pressure 29.74 in
Visibility -9999.0 miles
Clouds
Heat Index 102 °F
Dew Point 79 °F
Humidity 75%
Rainfall 0.00 in
Snow Depth Not available.
UV Not available.
Pollen Not available.
Air Quality Not available.
Flu Activity Not available.
METAR SPTU 222300Z 00000KT CAVOK 31/26 Q1007 RMK TBIRD HAZARD RWY 01/19 PP000

More Conditions Fewer Conditions

Pressure 29.74 in
Visibility -9999.0 miles
Clouds
Heat Index 102 °F
Dew Point 79 °F
Humidity 75%
Rainfall 0.00 in
Snow Depth Not available.
UV Not available.
Pollen Not available.
Air Quality Not available.
Flu Activity Not available.
METAR SPTU 222300Z 00000KT CAVOK 31/26 Q1007 RMK TBIRD HAZARD RWY 01/19 PP000

More Conditions Fewer Conditions

10-Day Weather Forecast

Almanac

Astronomy

Oct. 22, 2014 Rise Set
Actual Time 5:07 AM PET 5:34 PM PET
Civil Twilight 4:46 AM PET 5:56 PM PET
Nautical Twilight 4:20 AM PET 6:22 PM PET
Astronomical Twilight 3:55 AM PET 6:47 PM PET
Moon 4:10 AM PET 4:43 PM PET
Length of Visible Light 13h 10m
Length of Day
12h 27m
Tomorrow will be 0m 41s longer.
Waning Crescent, 1% of the Moon is Illuminated
Today
Waning Crescent
Oct 23
New
Oct 30
First Quarter
Nov 6
Full
Nov 14
Last Quarter

Today's Extremes

Country Highs Country Lows

Community

WunderPhotos

Upload Photos

1,764,071 photos uploaded!

WunderBlogs® & News

Nearby

Snow Depth

Not available.

Earthquake Activity

City Distance Mag. Time & Date
No recent earthquake activity has been reported nearby.
Minimum magnitude displayed is 2.5.

Coastal Water Temperatures

Place Temperature
No Stations Reporting

Nearby Weather Stations